Airfield :
LOGIN :

Register | Disclaimer

   EN    FR    IT 

 










Legend :    VFR   Marginal VFR   IFR   Intensive IFR   Very Intensive IFR
Visi :
Ceiling :
>= 8 km
>= 3000ft
5 to 8 km
1000 to 3000 ft
1500m to 5 km
500 to 1000 ft
800 to 1500m
200 to 500 ft
< 800m
< 200 ft
Symbols :   Thunderstorms  Fog  Heavy snow  Heavy precipitations  Wind > 20 kt
SIGMETs :     Misc.  Thunderstorms  Icing  Turbulence  Mountain Waves  Volcanic Ashes







- Airport Elevation : 423 ft
- IATA code : PIS
- Download approach charts


LFBI - Poitiers

CURRENT METAR :
  • 181400Z AUTO 19007KT 150V210 CAVOK 26/17 Q1017 TEMPO BKN070TCU

EXPIRED METARs :
  • 181330Z AUTO 19006KT 130V230 9999 FEW032 BKN084 BKN110 26/17 Q1017 TEMPO BKN070TCU
  • 181300Z AUTO 22007KT CAVOK 25/16 Q1017 TEMPO BKN070TCU
  • 181230Z AUTO 19005KT 140V240 CAVOK 24/17 Q1017 TEMPO BKN070TCU
  • 181200Z AUTO 16006KT 130V190 CAVOK 23/17 Q1017 TEMPO BKN070TCU
  • 181130Z AUTO 19004KT 120V260 CAVOK 22/18 Q1017 TEMPO BKN070TCU

TAF TAF LFBI
Valid from the 18 at 12:00 until the 19 at 12:00 UTC


181100Z 1812/1912 24005KT 9999 SCT080TCU
PROB30 1812/1815 -SHRA BKN070TCU
BECMG 1815/1817 NSC
BECMG 1903/1905 0500 FG VV///
BECMG 1907/1909 9999 NSW BKN010
BECMG 1909/1911 NSC
No reported NOTAMs for that airfield.



MET'MAP, your aeronautical weather chart ! - Copyright ORBIFLY December 2007 - Disclaimer

ORBIFLY MET'MAP TEAM :

Programming & Development : Alexandra Zaïnal
Concept & Development : Baudouin d'Aumeries
Co-Development & Prog : Marc-Olivier Méhu
Technical & hardware support : Manuel Goepfert

Contact : metmap@orbifly.com




SOURCES & CREDITS :

   NOAA